createdAt,value
2023-03-05T00:01:40.769Z,-1.90
2023-03-05T00:04:13.155Z,-3.50
2023-03-05T00:06:43.266Z,-3.90
2023-03-05T00:09:11.779Z,-3.60
2023-03-05T00:11:40.251Z,-3.70
2023-03-05T00:14:08.856Z,-2.60
2023-03-05T00:16:37.437Z,-2.90
2023-03-05T00:19:05.963Z,-3.40
2023-03-05T00:21:36.373Z,-2.70
2023-03-05T00:24:08.423Z,-3.30
2023-03-05T00:26:39.121Z,-3.70
2023-03-05T00:29:09.633Z,-3.10
2023-03-05T00:31:39.346Z,-3.30
2023-03-05T00:34:10.517Z,-4.40
2023-03-05T00:36:41.903Z,-2.70
2023-03-05T00:39:11.707Z,-3.80
2023-03-05T00:41:40.449Z,-3.50
2023-03-05T00:44:09.186Z,-2.80
2023-03-05T00:46:38.002Z,-3.70
2023-03-05T00:49:06.479Z,-3.90
2023-03-05T00:51:35.369Z,-3.70
2023-03-05T00:54:04.042Z,-3.10
2023-03-05T00:56:33.905Z,-3.00
2023-03-05T00:59:02.663Z,-3.50
2023-03-05T01:01:31.191Z,-3.10
2023-03-05T01:04:01.274Z,-3.30
2023-03-05T01:06:29.900Z,-2.60
2023-03-05T01:08:59.279Z,-3.10
2023-03-05T01:11:27.693Z,-3.80
2023-03-05T01:13:57.499Z,-3.30
2023-03-05T01:16:26.012Z,-3.90
2023-03-05T01:18:54.862Z,-3.70
2023-03-05T01:21:23.349Z,-2.90
2023-03-05T01:23:52.047Z,-3.60
2023-03-05T01:26:20.440Z,-3.30
2023-03-05T01:28:49.021Z,-3.90
2023-03-05T01:31:21.759Z,-3.20
2023-03-05T01:33:52.827Z,-3.70
2023-03-05T01:36:25.250Z,-3.60
2023-03-05T01:38:53.923Z,-3.30
2023-03-05T01:41:22.464Z,-3.30
2023-03-05T01:43:53.103Z,-3.40
2023-03-05T01:46:35.010Z,-3.60
2023-03-05T01:49:09.837Z,-4.00
2023-03-05T01:51:42.836Z,-3.90
2023-03-05T01:54:13.297Z,-2.50
2023-03-05T01:56:43.689Z,-3.20
2023-03-05T01:59:13.554Z,-3.90
2023-03-05T02:01:47.360Z,-2.60
2023-03-05T02:04:20.266Z,-3.90
2023-03-05T02:06:49.949Z,-4.30
2023-03-05T02:09:18.700Z,-2.80
2023-03-05T02:11:47.133Z,-4.10
2023-03-05T02:14:15.696Z,-3.50
2023-03-05T02:16:45.616Z,-3.70
2023-03-05T02:19:14.437Z,-3.30
2023-03-05T02:21:45.916Z,-3.50
2023-03-05T02:24:15.068Z,-2.10
2023-03-05T02:26:44.969Z,-3.30
2023-03-05T02:29:20.046Z,-3.80
2023-03-05T02:31:48.384Z,-2.90
2023-03-05T02:34:16.815Z,-3.90
2023-03-05T02:36:46.839Z,-2.80
2023-03-05T02:39:16.125Z,-3.20
2023-03-05T02:41:44.682Z,-4.10
2023-03-05T02:44:13.299Z,-3.00
2023-03-05T02:46:41.649Z,-3.90
2023-03-05T02:49:10.074Z,-3.70
2023-03-05T02:51:38.680Z,-3.70
2023-03-05T02:54:09.682Z,-3.90
2023-03-05T02:56:39.673Z,-3.20
2023-03-05T02:59:08.465Z,-2.50
2023-03-05T03:01:36.954Z,-2.10
2023-03-05T03:04:05.639Z,-3.80
2023-03-05T03:06:34.006Z,-4.00
2023-03-05T03:09:02.397Z,-3.10
2023-03-05T03:11:32.216Z,-3.90
2023-03-05T03:14:01.421Z,-2.70
2023-03-05T03:16:29.840Z,-3.10
2023-03-05T03:18:58.261Z,-3.90
2023-03-05T03:21:27.392Z,-4.10
2023-03-05T03:23:55.800Z,-3.50
2023-03-05T03:26:24.314Z,-3.40
2023-03-05T03:28:54.144Z,-3.60
2023-03-05T03:31:22.872Z,-2.90
2023-03-05T03:33:51.416Z,-4.20
2023-03-05T03:36:19.735Z,-3.80
2023-03-05T03:38:48.060Z,-3.20
2023-03-05T03:41:16.405Z,-3.50
2023-03-05T03:43:44.766Z,-3.80
2023-03-05T03:46:14.584Z,-3.80
2023-03-05T03:48:42.933Z,-2.50
2023-03-05T03:51:11.286Z,-3.80
2023-03-05T03:53:39.552Z,-4.20
2023-03-05T03:56:08.396Z,-3.90
2023-03-05T03:58:36.933Z,-3.70
2023-03-05T04:01:05.711Z,-2.50
2023-03-05T04:03:35.526Z,-3.80
2023-03-05T04:06:04.597Z,-3.60
2023-03-05T04:08:32.933Z,-3.70
2023-03-05T04:11:02.330Z,-2.70
2023-03-05T04:13:30.984Z,-3.80
2023-03-05T04:15:59.388Z,-3.70
2023-03-05T04:18:27.677Z,-2.30
2023-03-05T04:20:57.517Z,-3.70
2023-03-05T04:23:26.154Z,-3.50
2023-03-05T04:25:54.554Z,-2.10
2023-03-05T04:28:22.832Z,-3.50
2023-03-05T04:30:51.300Z,-2.40
2023-03-05T04:33:20.028Z,-3.20
2023-03-05T04:35:48.379Z,-3.50
2023-03-05T04:38:18.202Z,-3.60
2023-03-05T04:40:46.847Z,-3.60
2023-03-05T04:43:15.524Z,-3.60
2023-03-05T04:45:44.795Z,-3.50
2023-03-05T04:48:13.720Z,-2.70
2023-03-05T04:50:41.995Z,-3.00
2023-03-05T04:53:10.344Z,-2.10
2023-03-05T04:55:40.174Z,-3.20
2023-03-05T04:58:08.542Z,-3.20
2023-03-05T05:00:37.051Z,-3.20
2023-03-05T05:03:05.587Z,-3.80
2023-03-05T05:05:34.320Z,-2.00
2023-03-05T05:08:02.553Z,-3.30
2023-03-05T05:10:31.775Z,-2.20
2023-03-05T05:13:01.656Z,-3.40
2023-03-05T05:15:30.046Z,-2.90
2023-03-05T05:17:58.338Z,-2.90
2023-03-05T05:20:26.842Z,-3.00
2023-03-05T05:22:55.087Z,-4.00
2023-03-05T05:25:23.479Z,-3.20
2023-03-05T05:27:51.810Z,-3.50
2023-03-05T05:30:21.673Z,-3.10
2023-03-05T05:32:49.951Z,-2.20
2023-03-05T05:35:18.495Z,-3.60
2023-03-05T05:37:46.815Z,-3.60
2023-03-05T05:40:15.477Z,-2.80
2023-03-05T05:42:44.603Z,-3.50
2023-03-05T05:45:13.451Z,-3.20
2023-03-05T05:47:43.124Z,-3.60
2023-03-05T05:50:13.471Z,-3.50
2023-03-05T05:52:41.768Z,-3.50
2023-03-05T05:55:11.389Z,-2.60
2023-03-05T05:57:40.239Z,-3.40
2023-03-05T06:00:12.271Z,-3.50
2023-03-05T06:02:40.905Z,-3.30
2023-03-05T06:05:14.808Z,-2.90
2023-03-05T06:07:43.698Z,-3.30
2023-03-05T06:10:12.659Z,-3.00
2023-03-05T06:12:41.155Z,-3.00
2023-03-05T06:15:10.371Z,-3.50
2023-03-05T06:17:38.693Z,-2.80
2023-03-05T06:20:08.300Z,-2.10
2023-03-05T06:22:39.735Z,-2.70
2023-03-05T06:25:09.794Z,-2.50
2023-03-05T06:27:38.711Z,-2.50
2023-03-05T06:30:08.513Z,-2.30
2023-03-05T06:32:36.852Z,-2.20
2023-03-05T06:35:06.290Z,-2.10
2023-03-05T06:37:35.497Z,-2.10
2023-03-05T06:40:07.801Z,-1.70
2023-03-05T06:42:36.167Z,-1.80
2023-03-05T06:45:05.051Z,-1.80
2023-03-05T06:47:33.535Z,-1.80
2023-03-05T06:50:02.854Z,-1.30
2023-03-05T06:52:31.893Z,-0.90
2023-03-05T06:55:00.167Z,-1.70
2023-03-05T06:57:29.914Z,-1.60
2023-03-05T06:59:58.506Z,-1.30
2023-03-05T07:02:27.255Z,-1.50
2023-03-05T07:04:55.730Z,-1.40
2023-03-05T07:07:24.175Z,-1.40
2023-03-05T07:09:53.817Z,-0.90
2023-03-05T07:12:25.383Z,-1.50
2023-03-05T07:14:55.909Z,-1.00
2023-03-05T07:17:24.267Z,-1.00
2023-03-05T07:19:52.837Z,-0.30
2023-03-05T07:22:21.089Z,-1.00
2023-03-05T07:24:49.502Z,-0.90
2023-03-05T07:27:17.872Z,0.10
2023-03-05T07:29:46.122Z,-0.80
2023-03-05T07:32:16.469Z,-1.10
2023-03-05T07:34:44.806Z,-0.20
2023-03-05T07:37:13.127Z,0.30
2023-03-05T07:39:41.335Z,0.70
2023-03-05T07:42:09.759Z,-0.20
2023-03-05T07:44:52.180Z,-0.70
2023-03-05T07:47:23.372Z,0.30
2023-03-05T07:49:52.064Z,-0.40
2023-03-05T07:52:20.387Z,-0.10
2023-03-05T07:54:48.857Z,0.70
2023-03-05T07:57:17.447Z,0.10
2023-03-05T07:59:45.903Z,1.60
2023-03-05T08:02:15.238Z,0.50
2023-03-05T08:04:45.107Z,1.10
2023-03-05T08:07:16.194Z,0.80
2023-03-05T08:09:44.892Z,0.20
2023-03-05T08:12:13.363Z,0.40
2023-03-05T08:14:41.780Z,0.90
2023-03-05T08:17:10.023Z,0.40
2023-03-05T08:19:38.484Z,0.20
2023-03-05T08:22:08.301Z,0.20
2023-03-05T08:24:37.038Z,0.40
2023-03-05T08:27:05.590Z,0.90
2023-03-05T08:29:34.283Z,0.80
2023-03-05T08:32:02.644Z,0.90
2023-03-05T08:34:31.138Z,-0.20
2023-03-05T08:36:59.475Z,0.00
2023-03-05T08:39:30.245Z,0.30
2023-03-05T08:41:58.579Z,0.50
2023-03-05T08:44:27.088Z,0.80
2023-03-05T08:46:55.508Z,2.20
2023-03-05T08:49:25.085Z,0.60
2023-03-05T08:51:53.442Z,0.90
2023-03-05T08:54:24.030Z,0.80
2023-03-05T08:56:56.322Z,0.60
2023-03-05T08:59:24.851Z,1.30
2023-03-05T09:01:53.255Z,0.40
2023-03-05T09:04:21.574Z,1.10
2023-03-05T09:06:49.960Z,0.40
2023-03-05T09:09:20.798Z,1.10
2023-03-05T09:11:49.080Z,1.70
2023-03-05T09:14:19.087Z,0.70
2023-03-05T09:16:47.507Z,0.00
2023-03-05T09:19:15.799Z,0.60
2023-03-05T09:21:44.035Z,0.60
2023-03-05T09:24:16.136Z,0.90
2023-03-05T09:26:44.427Z,0.20
2023-03-05T09:29:13.006Z,1.00
2023-03-05T09:31:44.134Z,1.10
2023-03-05T09:34:13.222Z,2.50
2023-03-05T09:36:41.648Z,1.10
2023-03-05T09:39:10.082Z,1.10
2023-03-05T09:42:01.949Z,1.00
2023-03-05T09:44:39.078Z,1.00
2023-03-05T09:47:25.305Z,1.30
2023-03-05T09:49:59.974Z,1.10
2023-03-05T09:52:40.704Z,1.00
2023-03-05T09:55:15.213Z,1.40
2023-03-05T09:57:47.060Z,2.30
2023-03-05T10:00:28.945Z,2.80
2023-03-05T10:03:02.485Z,2.70
2023-03-05T10:05:47.022Z,1.80
2023-03-05T10:08:17.681Z,1.30
2023-03-05T10:10:51.105Z,0.60
2023-03-05T10:13:26.145Z,1.30
2023-03-05T10:16:05.043Z,2.30
2023-03-05T10:18:41.091Z,2.30
2023-03-05T10:21:14.689Z,1.80
2023-03-05T10:23:59.349Z,1.30
2023-03-05T10:26:48.631Z,1.40
2023-03-05T10:29:33.542Z,1.60
2023-03-05T10:32:14.963Z,1.60
2023-03-05T10:35:01.215Z,1.10
2023-03-05T10:37:51.142Z,1.40
2023-03-05T10:40:27.803Z,1.70
2023-03-05T10:43:05.309Z,2.50
2023-03-05T10:45:37.803Z,1.30
2023-03-05T10:48:12.781Z,0.50
2023-03-05T10:51:01.606Z,1.40
2023-03-05T10:53:34.148Z,1.70
2023-03-05T10:56:04.176Z,1.60
2023-03-05T10:58:33.340Z,2.40
2023-03-05T11:01:05.838Z,1.80
2023-03-05T11:03:54.674Z,1.20
2023-03-05T11:06:35.468Z,1.20
2023-03-05T11:09:24.262Z,1.20
2023-03-05T11:12:14.656Z,1.10
2023-03-05T11:14:46.349Z,1.10
2023-03-05T11:17:31.102Z,1.00
2023-03-05T11:20:29.633Z,0.70
2023-03-05T11:23:11.192Z,0.80
2023-03-05T11:26:01.101Z,0.70
2023-03-05T11:28:33.933Z,0.80
2023-03-05T11:31:07.561Z,0.50
2023-03-05T11:33:38.198Z,0.70
2023-03-05T11:36:22.765Z,1.30
2023-03-05T11:38:59.621Z,0.80
2023-03-05T11:41:35.702Z,1.10
2023-03-05T11:44:13.434Z,1.80
2023-03-05T11:46:45.969Z,0.60
2023-03-05T11:49:19.665Z,0.70
2023-03-05T11:51:54.371Z,0.40
2023-03-05T11:54:29.791Z,0.70
2023-03-05T11:56:58.372Z,0.80
2023-03-05T11:59:30.715Z,0.90
2023-03-05T12:01:59.606Z,0.90
2023-03-05T12:04:28.828Z,1.00
2023-03-05T12:06:59.474Z,2.00
2023-03-05T12:09:42.295Z,1.10
2023-03-05T12:12:30.937Z,0.70
2023-03-05T12:15:04.737Z,0.60
2023-03-05T12:17:38.714Z,0.60
2023-03-05T12:20:13.526Z,0.20
2023-03-05T12:22:43.349Z,0.30
2023-03-05T12:25:35.044Z,0.40
2023-03-05T12:28:04.221Z,0.60
2023-03-05T12:30:58.437Z,0.60
2023-03-05T12:33:38.969Z,0.50
2023-03-05T12:36:42.885Z,0.50
2023-03-05T12:39:50.997Z,0.40
2023-03-05T12:42:48.787Z,0.50
2023-03-05T12:45:38.538Z,0.50
2023-03-05T12:48:37.060Z,0.40
2023-03-05T12:51:05.667Z,0.40
2023-03-05T12:53:34.138Z,0.40
2023-03-05T12:56:12.612Z,0.30
2023-03-05T12:58:45.590Z,0.80
2023-03-05T13:01:33.110Z,0.50
2023-03-05T13:04:10.783Z,0.40
2023-03-05T13:06:40.597Z,0.80
2023-03-05T13:09:18.092Z,-0.30
2023-03-05T13:11:49.471Z,1.20
2023-03-05T13:14:33.181Z,0.80
2023-03-05T13:17:02.326Z,0.70
2023-03-05T13:19:32.929Z,0.60
2023-03-05T13:22:03.257Z,0.40
2023-03-05T13:24:34.830Z,0.50
2023-03-05T13:27:03.218Z,0.50
2023-03-05T13:29:32.917Z,0.60
2023-03-05T13:32:03.503Z,1.10
2023-03-05T13:34:47.085Z,0.40
2023-03-05T13:37:19.192Z,0.90
2023-03-05T13:39:51.122Z,0.80
2023-03-05T13:42:21.963Z,1.00
2023-03-05T13:45:01.567Z,1.40
2023-03-05T13:47:32.626Z,0.50
2023-03-05T13:50:05.038Z,0.90
2023-03-05T13:52:36.707Z,1.20
2023-03-05T13:55:13.272Z,-0.70
2023-03-05T13:57:43.645Z,0.50
2023-03-05T14:00:30.119Z,0.40
2023-03-05T14:03:04.120Z,0.60
2023-03-05T14:05:32.576Z,0.90
2023-03-05T14:08:01.204Z,1.10
2023-03-05T14:10:32.847Z,0.80
2023-03-05T14:13:04.499Z,0.60
2023-03-05T14:15:36.871Z,0.50
2023-03-05T14:18:26.329Z,0.40
2023-03-05T14:21:04.085Z,0.00
2023-03-05T14:23:41.847Z,0.70
2023-03-05T14:26:33.190Z,0.60
2023-03-05T14:29:04.029Z,1.70
2023-03-05T14:31:54.382Z,1.20
2023-03-05T14:34:30.050Z,0.60
2023-03-05T14:37:03.591Z,0.60
2023-03-05T14:39:39.452Z,1.00
2023-03-05T14:42:28.013Z,0.60
2023-03-05T14:44:57.639Z,1.30
2023-03-05T14:47:29.023Z,1.20
2023-03-05T14:49:57.737Z,0.30
2023-03-05T14:52:28.403Z,0.60
2023-03-05T14:54:57.130Z,0.80
2023-03-05T14:57:32.747Z,0.90
2023-03-05T15:00:01.171Z,0.90
2023-03-05T15:02:46.334Z,0.60
2023-03-05T15:05:14.989Z,1.20
2023-03-05T15:07:44.328Z,0.60
2023-03-05T15:10:16.806Z,1.40
2023-03-05T15:12:45.634Z,0.50
2023-03-05T15:15:15.908Z,1.20
2023-03-05T15:17:48.050Z,1.00
2023-03-05T15:20:19.783Z,0.50
2023-03-05T15:22:49.340Z,0.70
2023-03-05T15:25:18.012Z,0.30
2023-03-05T15:27:51.016Z,0.80
2023-03-05T15:30:24.438Z,0.40
2023-03-05T15:32:55.660Z,0.30
2023-03-05T15:35:25.414Z,0.30
2023-03-05T15:37:54.404Z,0.10
2023-03-05T15:40:23.264Z,0.50
2023-03-05T15:42:58.298Z,0.50
2023-03-05T15:45:40.959Z,0.50
2023-03-05T15:48:12.485Z,1.20
2023-03-05T15:50:43.098Z,1.10
2023-03-05T15:53:18.132Z,0.50
2023-03-05T15:55:47.151Z,0.10
2023-03-05T15:58:18.535Z,0.00
2023-03-05T16:00:47.655Z,0.20
2023-03-05T16:03:17.650Z,-0.10
2023-03-05T16:05:46.132Z,0.90
2023-03-05T16:08:14.522Z,0.10
2023-03-05T16:10:43.003Z,0.20
2023-03-05T16:13:14.381Z,0.50
2023-03-05T16:15:44.716Z,-0.50
2023-03-05T16:18:18.826Z,-0.20
2023-03-05T16:20:47.812Z,-0.10
2023-03-05T16:23:16.266Z,-0.20
2023-03-05T16:25:44.846Z,0.60
2023-03-05T16:28:13.196Z,-0.30
2023-03-05T16:30:41.946Z,-0.30
2023-03-05T16:33:10.286Z,-0.10
2023-03-05T16:35:40.129Z,0.90
2023-03-05T16:38:08.532Z,-0.20
2023-03-05T16:41:05.898Z,-0.40
2023-03-05T16:43:26.692Z,-0.70
2023-03-05T16:45:55.099Z,-0.50
2023-03-05T16:48:24.091Z,0.00
2023-03-05T16:50:54.222Z,-0.70
2023-03-05T16:53:22.547Z,-0.70
2023-03-05T16:55:51.086Z,-0.70
2023-03-05T16:58:19.470Z,-0.70
2023-03-05T17:00:49.183Z,-0.90
2023-03-05T17:03:17.587Z,-1.00
2023-03-05T17:05:46.082Z,-1.20
2023-03-05T17:08:15.984Z,-1.20
2023-03-05T17:10:44.924Z,-0.30
2023-03-05T17:13:13.218Z,-1.20
2023-03-05T17:15:44.550Z,-1.20
2023-03-05T17:18:12.949Z,-1.20
2023-03-05T17:20:41.249Z,-0.90
2023-03-05T17:23:09.542Z,-1.20
2023-03-05T17:25:39.509Z,-1.50
2023-03-05T17:28:07.859Z,-1.40
2023-03-05T17:30:37.141Z,-0.80
2023-03-05T17:33:06.254Z,-1.60
2023-03-05T17:35:38.222Z,-1.60
2023-03-05T17:38:08.218Z,-2.50
2023-03-05T17:40:37.244Z,-1.70
2023-03-05T17:43:07.063Z,-1.90
2023-03-05T17:45:35.920Z,-1.80
2023-03-05T17:48:05.052Z,-0.90
2023-03-05T17:50:33.431Z,-1.80
2023-03-05T17:53:01.781Z,-1.80
2023-03-05T17:55:30.184Z,-1.50
2023-03-05T17:57:58.890Z,-1.80
2023-03-05T18:00:30.579Z,-2.00
2023-03-05T18:03:00.382Z,-2.00
2023-03-05T18:05:29.464Z,-1.50
2023-03-05T18:07:59.021Z,-1.20
2023-03-05T18:10:28.740Z,-1.90
2023-03-05T18:12:57.398Z,-2.10
2023-03-05T18:15:27.423Z,-2.00
2023-03-05T18:17:58.634Z,-2.10
2023-03-05T18:20:29.975Z,-2.10
2023-03-05T18:22:59.116Z,-1.50
2023-03-05T18:25:31.284Z,-1.40
2023-03-05T18:28:00.623Z,-1.40
2023-03-05T18:30:30.045Z,-2.20
2023-03-05T18:33:00.244Z,-2.30
2023-03-05T18:35:30.155Z,-2.00
2023-03-05T18:37:59.052Z,-2.30
2023-03-05T18:40:32.545Z,-2.50
2023-03-05T18:43:01.926Z,-2.50
2023-03-05T18:45:32.453Z,-1.70
2023-03-05T18:48:05.094Z,-1.70
2023-03-05T18:50:33.540Z,-2.30
2023-03-05T18:53:01.955Z,-2.50
2023-03-05T18:55:31.428Z,-2.00
2023-03-05T18:58:00.071Z,-2.00
2023-03-05T19:00:31.374Z,-2.90
2023-03-05T19:03:03.254Z,-2.80
2023-03-05T19:05:32.298Z,-2.90
2023-03-05T19:08:01.537Z,-2.60
2023-03-05T19:10:32.252Z,-2.40
2023-03-05T19:13:39.952Z,-2.60
2023-03-05T19:16:10.415Z,-2.60
2023-03-05T19:19:15.451Z,-2.70
2023-03-05T19:21:44.848Z,-2.70
2023-03-05T19:24:13.964Z,-2.50
2023-03-05T19:26:45.636Z,-2.70
2023-03-05T19:29:14.091Z,-2.20
2023-03-05T19:31:42.913Z,-2.40
2023-03-05T19:34:12.780Z,-2.70
2023-03-05T19:36:41.181Z,-2.60
2023-03-05T19:39:10.172Z,-2.90
2023-03-05T19:41:38.695Z,-2.60
2023-03-05T19:44:07.352Z,-3.00
2023-03-05T19:46:36.132Z,-2.90
2023-03-05T19:49:05.031Z,-2.20
2023-03-05T19:51:35.364Z,-2.60
2023-03-05T19:54:05.599Z,-2.30
2023-03-05T19:56:34.035Z,-2.50
2023-03-05T19:59:02.496Z,-3.10
2023-03-05T20:01:31.121Z,-2.80
2023-03-05T20:04:02.010Z,-2.90
2023-03-05T20:06:32.485Z,-3.30
2023-03-05T20:09:02.528Z,-2.80
2023-03-05T20:11:31.117Z,-3.10
2023-03-05T20:13:59.937Z,-3.10
2023-03-05T20:16:36.370Z,-2.20
2023-03-05T20:19:07.730Z,-3.60
2023-03-05T20:21:38.043Z,-1.80
2023-03-05T20:24:10.218Z,-2.80
2023-03-05T20:26:39.887Z,-3.00
2023-03-05T20:29:09.112Z,-3.10
2023-03-05T20:31:38.517Z,-3.10
2023-03-05T20:34:07.963Z,-2.10
2023-03-05T20:36:36.412Z,-2.50
2023-03-05T20:39:06.218Z,-2.90
2023-03-05T20:41:40.778Z,-2.30
2023-03-05T20:44:11.463Z,-2.30
2023-03-05T20:47:32.306Z,-3.20
2023-03-05T20:50:10.932Z,-3.20
2023-03-05T20:52:39.723Z,-3.10
2023-03-05T20:55:09.045Z,-2.30
2023-03-05T20:57:39.253Z,-3.10
2023-03-05T21:00:08.725Z,-3.20
2023-03-05T21:02:37.157Z,-3.10
2023-03-05T21:05:06.169Z,-2.80
2023-03-05T21:07:34.539Z,-3.10
2023-03-05T21:10:02.983Z,-3.10
2023-03-05T21:12:33.285Z,-3.20
2023-03-05T21:15:03.236Z,-3.30
2023-03-05T21:17:34.260Z,-2.70
2023-03-05T21:20:05.794Z,-3.10
2023-03-05T21:22:36.940Z,-1.30
2023-03-05T21:25:21.008Z,-2.40
2023-03-05T21:27:52.496Z,-3.20
2023-03-05T21:30:23.255Z,-3.10
2023-03-05T21:32:51.599Z,-2.40
2023-03-05T21:35:22.483Z,-3.30
2023-03-05T21:37:52.655Z,-2.70
2023-03-05T21:40:22.429Z,-3.30
2023-03-05T21:42:51.043Z,-2.70
2023-03-05T21:45:23.238Z,-2.20
2023-03-05T21:47:52.769Z,-3.80
2023-03-05T21:50:21.786Z,-2.90
2023-03-05T21:52:50.340Z,-3.30
2023-03-05T21:55:22.531Z,-3.40
2023-03-05T21:57:50.925Z,-2.60
2023-03-05T22:00:23.218Z,-2.70
2023-03-05T22:02:51.533Z,-3.50
2023-03-05T22:05:20.209Z,-2.60
2023-03-05T22:07:48.487Z,-3.50
2023-03-05T22:10:19.429Z,-3.60
2023-03-05T22:13:12.572Z,-3.50
2023-03-05T22:15:47.892Z,-3.50
2023-03-05T22:18:17.177Z,-3.50
2023-03-05T22:20:45.874Z,-2.80
2023-03-05T22:23:14.565Z,-3.10
2023-03-05T22:25:43.810Z,-3.50
2023-03-05T22:28:13.191Z,-3.10
2023-03-05T22:30:46.237Z,-3.20
2023-03-05T22:33:14.840Z,-3.60
2023-03-05T22:35:43.947Z,-3.40
2023-03-05T22:38:13.282Z,-3.60
2023-03-05T22:40:43.406Z,-3.00
2023-03-05T22:43:15.313Z,-3.00
2023-03-05T22:45:45.729Z,-2.90
2023-03-05T22:48:14.220Z,-2.30
2023-03-05T22:50:44.722Z,-4.00
2023-03-05T22:53:13.619Z,-2.60
2023-03-05T22:55:43.364Z,-2.80
2023-03-05T22:58:11.958Z,-4.30
2023-03-05T23:00:41.389Z,-4.00
2023-03-05T23:03:11.192Z,-3.60
2023-03-05T23:05:40.758Z,-4.10
2023-03-05T23:08:09.469Z,-4.10
2023-03-05T23:10:38.257Z,-3.40
2023-03-05T23:13:06.647Z,-4.10
2023-03-05T23:15:38.816Z,-4.30
2023-03-05T23:18:07.600Z,-3.70
2023-03-05T23:20:39.008Z,-4.20
2023-03-05T23:23:07.611Z,-3.90
2023-03-05T23:25:36.901Z,-2.90
2023-03-05T23:28:05.861Z,-4.30
2023-03-05T23:30:37.245Z,-4.30
2023-03-05T23:33:07.938Z,-3.00
2023-03-05T23:35:39.798Z,-3.30
2023-03-05T23:38:12.170Z,-2.50
2023-03-05T23:40:43.241Z,-3.80
2023-03-05T23:43:12.233Z,-4.30
2023-03-05T23:45:42.071Z,-4.40
2023-03-05T23:48:10.717Z,-4.20
2023-03-05T23:50:43.075Z,-4.20
2023-03-05T23:53:13.407Z,-4.40
2023-03-05T23:55:44.244Z,-4.40
2023-03-05T23:58:13.073Z,-4.50
